createdAt,value
2022-09-23T00:03:07.097Z,6.45
2022-09-23T00:08:11.682Z,6.88
2022-09-23T00:13:13.290Z,7.15
2022-09-23T00:18:15.001Z,6.70
2022-09-23T00:23:16.623Z,9.25
2022-09-23T00:28:18.228Z,9.45
2022-09-23T00:33:19.902Z,7.45
2022-09-23T00:38:21.503Z,6.28
2022-09-23T00:43:47.027Z,6.32
2022-09-23T00:48:53.286Z,8.50
2022-09-23T00:53:55.678Z,6.13
2022-09-23T00:58:57.393Z,6.32
2022-09-23T01:03:59.253Z,7.22
2022-09-23T01:09:00.865Z,6.78
2022-09-23T01:14:18.034Z,6.82
2022-09-23T01:19:50.789Z,6.85
2022-09-23T01:25:21.295Z,6.97
2022-09-23T01:31:05.051Z,7.15
2022-09-23T01:36:35.472Z,6.50
2022-09-23T01:41:58.600Z,8.80
2022-09-23T01:47:11.068Z,7.63
2022-09-23T01:52:25.852Z,7.47
2022-09-23T01:57:33.471Z,7.35
2022-09-23T02:02:49.373Z,7.20
2022-09-23T02:08:23.701Z,8.85
2022-09-23T02:13:40.178Z,8.48
2022-09-23T02:18:55.983Z,8.30
2022-09-23T02:24:09.134Z,6.45
2022-09-23T02:29:37.700Z,7.88
2022-09-23T02:34:51.487Z,8.85
2022-09-23T02:40:09.766Z,6.82
2022-09-23T02:45:11.564Z,10.30
2022-09-23T02:50:13.889Z,7.43
2022-09-23T02:55:22.274Z,8.20
2022-09-23T03:00:24.059Z,7.43
2022-09-23T03:05:30.356Z,12.15
2022-09-23T03:10:50.430Z,6.68
2022-09-23T03:16:07.517Z,9.50
2022-09-23T03:21:16.228Z,7.18
2022-09-23T03:26:27.543Z,9.40
2022-09-23T03:31:30.197Z,6.57
2022-09-23T03:36:51.668Z,7.30
2022-09-23T03:41:57.248Z,8.43
2022-09-23T03:47:02.426Z,6.75
2022-09-23T03:52:04.055Z,6.03
2022-09-23T03:57:05.725Z,13.63
2022-09-23T04:02:07.914Z,6.25
2022-09-23T04:07:10.924Z,9.65
2022-09-23T04:12:15.393Z,6.57
2022-09-23T04:17:17.031Z,7.15
2022-09-23T04:22:18.699Z,6.75
2022-09-23T04:27:20.393Z,7.80
2022-09-23T04:32:21.994Z,7.75
2022-09-23T04:37:23.665Z,5.65
2022-09-23T04:42:28.855Z,11.48
2022-09-23T04:47:32.412Z,7.38
2022-09-23T04:52:34.033Z,6.03
2022-09-23T04:57:35.722Z,5.82
2022-09-23T05:02:43.453Z,6.15
2022-09-23T05:07:45.053Z,7.38
2022-09-23T05:12:46.687Z,5.78
2022-09-23T05:17:48.301Z,6.95
2022-09-23T05:22:49.921Z,8.05
2022-09-23T05:27:51.960Z,7.18
2022-09-23T05:32:54.202Z,12.40
2022-09-23T05:37:55.826Z,7.80
2022-09-23T05:42:57.869Z,8.95
2022-09-23T05:47:59.493Z,9.48
2022-09-23T05:53:01.133Z,8.95
2022-09-23T05:58:02.741Z,8.82
2022-09-23T06:03:04.576Z,12.55
2022-09-23T06:08:07.387Z,11.73
2022-09-23T06:13:09.872Z,10.98
2022-09-23T06:18:12.540Z,8.85
2022-09-23T06:23:14.144Z,12.02
2022-09-23T06:28:15.728Z,10.13
2022-09-23T06:33:23.242Z,10.75
2022-09-23T06:38:34.293Z,13.18
2022-09-23T06:43:35.940Z,13.65
2022-09-23T06:48:37.553Z,9.48
2022-09-23T06:53:39.485Z,11.70
2022-09-23T06:58:41.457Z,13.55
2022-09-23T07:03:45.235Z,13.77
2022-09-23T07:08:48.242Z,16.42
2022-09-23T07:13:49.900Z,13.80
2022-09-23T07:18:53.524Z,11.70
2022-09-23T07:23:58.174Z,8.35
2022-09-23T07:29:07.528Z,9.80
2022-09-23T07:34:11.461Z,13.15
2022-09-23T07:39:13.722Z,11.35
2022-09-23T07:44:16.337Z,10.70
2022-09-23T07:49:17.946Z,9.85
2022-09-23T07:54:20.060Z,7.57
2022-09-23T07:59:21.906Z,6.40
2022-09-23T08:04:26.815Z,8.45
2022-09-23T08:09:34.818Z,5.15
2022-09-23T08:14:36.644Z,5.28
2022-09-23T08:19:39.188Z,5.15
2022-09-23T08:24:41.098Z,4.82
2022-09-23T08:29:42.717Z,5.38
2022-09-23T08:34:46.734Z,4.63
2022-09-23T08:39:48.333Z,6.90
2022-09-23T08:44:54.993Z,4.40
2022-09-23T08:50:07.370Z,2.78
2022-09-23T08:55:13.776Z,3.75
2022-09-23T09:00:20.878Z,10.05
2022-09-23T09:05:28.906Z,2.58
2022-09-23T09:10:47.036Z,7.38
2022-09-23T09:16:06.439Z,5.88
2022-09-23T09:21:12.648Z,4.75
2022-09-23T09:26:21.853Z,3.90
2022-09-23T09:31:30.988Z,6.15
2022-09-23T09:36:44.408Z,5.15
2022-09-23T09:41:50.041Z,10.15
2022-09-23T09:47:28.834Z,8.75
2022-09-23T09:52:31.786Z,4.75
2022-09-23T09:57:39.780Z,4.00
2022-09-23T10:02:41.995Z,4.65
2022-09-23T10:07:43.900Z,4.63
2022-09-23T10:12:47.299Z,4.50
2022-09-23T10:17:51.326Z,4.70
2022-09-23T10:22:53.202Z,4.82
2022-09-23T10:27:54.856Z,4.13
2022-09-23T10:32:57.072Z,2.05
2022-09-23T10:38:01.580Z,6.30
2022-09-23T10:43:37.904Z,1.75
2022-09-23T10:49:10.071Z,4.65
2022-09-23T10:54:36.370Z,2.35
2022-09-23T11:00:06.017Z,3.67
2022-09-23T11:06:01.204Z,1.85
2022-09-23T11:11:31.016Z,1.73
2022-09-23T11:16:46.568Z,1.55
2022-09-23T11:22:01.298Z,1.55
2022-09-23T11:27:11.646Z,2.53
2022-09-23T11:32:27.636Z,1.73
2022-09-23T11:37:46.457Z,3.53
2022-09-23T11:42:58.222Z,3.15
2022-09-23T11:48:09.814Z,2.88
2022-09-23T11:53:30.014Z,3.72
2022-09-23T11:58:37.915Z,1.88
2022-09-23T12:03:55.685Z,2.70
2022-09-23T12:09:03.914Z,2.28
2022-09-23T12:14:25.919Z,1.67
2022-09-23T12:19:45.498Z,1.65
2022-09-23T12:25:10.418Z,2.30
2022-09-23T12:30:25.351Z,3.47
2022-09-23T12:35:40.089Z,2.17
2022-09-23T12:40:43.646Z,4.20
2022-09-23T12:45:45.564Z,2.72
2022-09-23T12:51:03.774Z,1.52
2022-09-23T12:56:23.739Z,4.28
2022-09-23T13:01:26.827Z,1.30
2022-09-23T13:06:39.192Z,1.50
2022-09-23T13:11:45.342Z,3.22
2022-09-23T13:16:48.409Z,6.28
2022-09-23T13:21:51.400Z,3.17
2022-09-23T13:26:55.664Z,2.15
2022-09-23T13:31:58.122Z,1.60
2022-09-23T13:37:22.808Z,3.38
2022-09-23T13:42:28.662Z,2.85
2022-09-23T13:47:31.321Z,1.50
2022-09-23T13:52:33.169Z,2.55
2022-09-23T13:57:35.082Z,2.78
2022-09-23T14:02:43.135Z,3.42
2022-09-23T14:07:45.089Z,2.33
2022-09-23T14:12:48.897Z,5.82
2022-09-23T14:17:54.582Z,4.38
2022-09-23T14:23:09.631Z,1.55
2022-09-23T14:28:21.091Z,2.08
2022-09-23T14:33:33.318Z,2.00
2022-09-23T14:38:50.812Z,1.58
2022-09-23T14:43:58.702Z,1.25
2022-09-23T14:49:12.260Z,2.78
2022-09-23T14:54:44.057Z,2.08
2022-09-23T15:00:09.386Z,2.75
2022-09-23T15:05:23.252Z,2.45
2022-09-23T15:10:31.895Z,2.28
2022-09-23T15:15:33.888Z,3.25
2022-09-23T15:20:36.143Z,2.92
2022-09-23T15:25:41.226Z,2.60
2022-09-23T15:30:42.906Z,2.33
2022-09-23T15:35:48.919Z,2.60
2022-09-23T15:40:50.691Z,2.40
2022-09-23T15:45:57.234Z,2.22
2022-09-23T15:51:04.018Z,8.05
2022-09-23T15:56:06.292Z,4.22
2022-09-23T16:01:15.687Z,7.65
2022-09-23T16:06:17.334Z,4.60
2022-09-23T16:11:23.577Z,5.35
2022-09-23T16:16:27.817Z,5.30
2022-09-23T16:21:29.606Z,4.43
2022-09-23T16:26:35.580Z,5.57
2022-09-23T16:31:38.752Z,4.63
2022-09-23T16:36:43.127Z,9.35
2022-09-23T16:41:44.766Z,8.43
2022-09-23T16:46:46.395Z,8.38
2022-09-23T16:51:48.190Z,8.82
2022-09-23T16:56:50.506Z,6.25
2022-09-23T17:02:10.825Z,6.82
2022-09-23T17:07:12.706Z,6.00
2022-09-23T17:12:32.355Z,8.23
2022-09-23T17:17:37.548Z,6.88
2022-09-23T17:22:39.146Z,12.65
2022-09-23T17:27:40.880Z,5.60
2022-09-23T17:32:42.572Z,7.30
2022-09-23T17:37:44.166Z,6.10
2022-09-23T17:42:45.774Z,5.15
2022-09-23T17:47:51.286Z,5.53
2022-09-23T17:52:52.886Z,7.78
2022-09-23T17:57:54.494Z,7.40
2022-09-23T18:02:56.132Z,6.60
2022-09-23T18:07:57.745Z,9.55
2022-09-23T18:12:59.372Z,8.48
2022-09-23T18:18:00.994Z,8.02
2022-09-23T18:23:02.620Z,9.32
2022-09-23T18:28:04.283Z,12.32
2022-09-23T18:33:05.895Z,13.57
2022-09-23T18:38:07.767Z,12.35
2022-09-23T18:43:09.380Z,12.02
2022-09-23T18:48:29.655Z,9.65
2022-09-23T18:53:32.160Z,12.30
2022-09-23T18:58:33.847Z,13.90
2022-09-23T19:03:36.593Z,10.68
2022-09-23T19:08:38.638Z,13.02
2022-09-23T19:13:40.542Z,15.13
2022-09-23T19:18:44.406Z,16.75
2022-09-23T19:23:49.294Z,14.20
2022-09-23T19:28:53.388Z,13.80
2022-09-23T19:34:00.776Z,12.57
2022-09-23T19:39:08.534Z,12.93
2022-09-23T19:44:10.285Z,11.20
2022-09-23T19:49:12.169Z,12.00
2022-09-23T19:54:20.562Z,10.10
2022-09-23T19:59:22.437Z,9.90
2022-09-23T20:04:24.157Z,9.13
2022-09-23T20:09:29.014Z,10.93
2022-09-23T20:14:31.400Z,10.35
2022-09-23T20:19:33.061Z,11.73
2022-09-23T20:24:34.674Z,14.80
2022-09-23T20:29:37.419Z,15.75
2022-09-23T20:34:40.174Z,14.32
2022-09-23T20:39:41.785Z,15.68
2022-09-23T20:44:45.006Z,14.10
2022-09-23T20:49:46.654Z,14.80
2022-09-23T20:54:50.423Z,15.10
2022-09-23T20:59:52.034Z,12.05
2022-09-23T21:04:53.622Z,12.82
2022-09-23T21:09:55.208Z,19.80
2022-09-23T21:14:56.805Z,18.42
2022-09-23T21:20:01.429Z,13.05
2022-09-23T21:25:29.888Z,15.18
2022-09-23T21:30:25.637Z,13.93
2022-09-23T21:35:27.382Z,18.38
2022-09-23T21:40:47.492Z,20.55
2022-09-23T21:45:49.752Z,17.48
2022-09-23T21:50:56.767Z,20.83
2022-09-23T21:56:07.224Z,18.90
2022-09-23T22:01:15.571Z,21.35
2022-09-23T22:06:21.623Z,18.23
2022-09-23T22:11:43.112Z,19.55
2022-09-23T22:16:45.100Z,20.08
2022-09-23T22:21:47.140Z,17.55
2022-09-23T22:26:48.782Z,20.63
2022-09-23T22:32:08.955Z,22.13
2022-09-23T22:37:10.591Z,19.20
2022-09-23T22:42:16.150Z,19.73
2022-09-23T22:47:19.946Z,22.75
2022-09-23T22:52:24.569Z,23.27
2022-09-23T22:57:26.605Z,23.35
2022-09-23T23:02:28.291Z,18.20
2022-09-23T23:07:29.884Z,19.80
2022-09-23T23:12:33.498Z,20.00
2022-09-23T23:17:35.121Z,23.17
2022-09-23T23:22:36.717Z,21.20
2022-09-23T23:27:38.382Z,18.20
2022-09-23T23:32:39.995Z,19.35
2022-09-23T23:37:42.683Z,17.58
2022-09-23T23:42:44.345Z,21.63
2022-09-23T23:47:46.423Z,19.20
2022-09-23T23:52:48.073Z,22.20
2022-09-23T23:57:51.616Z,22.58
